Time;durP1;ratioP1;P1;durP2;ratioP2;P2;SDS_P1;SDS_P2;PMS_P1;PMS_P2;Temp;Humidity;BMP_temperature;BMP_pressure;BME280_temperature;BME280_humidity;BME280_pressure;Samples;Min_cycle;Max_cycle;Signal;HPM_P1;HPM_P2
2023/01/05 00:00:31;;;;;;;;;;;;;;;16.49;61.69;101280.13;2072167;28;19940;-72
2023/01/05 00:01:34;;;;;;;;;;;;;;;16.48;61.47;101279.34;2081791;28;19955;-70
2023/01/05 00:02:36;;;;;;;;;;;;;;;16.48;61.37;101260.25;2075292;28;20103;-72
2023/01/05 00:03:39;;;;;;;;;;;;;;;16.48;61.45;101275.81;2076312;28;20015;-71
2023/01/05 00:04:41;;;;;;;;;;;;;;;16.49;61.46;101285.56;2077555;28;19929;-71
2023/01/05 00:05:43;;;;;;;;;;;;;;;16.48;61.38;101281.25;2080461;28;19925;-70
2023/01/05 00:06:46;;;;;;;;;;;;;;;16.48;61.47;101284.00;2090092;28;19928;-71
2023/01/05 00:07:47;;;;;;;;;;;;;;;16.47;61.51;101282.44;2088948;28;19928;-70
2023/01/05 00:08:50;;;;;;;;;;;;;;;16.48;61.55;101289.44;2088415;28;19932;-70
2023/01/05 00:09:52;;;;;;;;;;;;;;;16.47;61.18;101285.16;2077910;28;20328;-70
2023/01/05 00:23:00;;;;;;;;;;;;;;;16.44;61.44;101284.72;2086540;28;19929;-70
2023/01/05 00:24:01;;;;;;;;;;;;;;;16.43;61.38;101283.13;2079346;28;19929;-72
2023/01/05 00:25:05;;;;;;;;;;;;;;;16.44;61.39;101287.47;2081683;28;20435;-70
2023/01/05 00:26:13;;;;;;;;;;;;;;;16.44;61.28;101284.72;2076346;28;20384;-72
2023/01/05 00:27:15;;;;;;;;;;;;;;;16.43;61.54;101283.13;2076400;28;19933;-73
2023/01/05 00:28:17;;;;;;;;;;;;;;;16.43;61.24;101296.75;2073213;28;20460;-72
2023/01/05 00:29:20;;;;;;;;;;;;;;;16.43;61.40;101291.31;2074529;28;19971;-70
2023/01/05 00:30:24;;;;;;;;;;;;;;;16.44;61.46;101289.38;2080431;28;19929;-71
2023/01/05 00:31:26;;;;;;;;;;;;;;;16.43;61.25;101287.78;2080094;28;19925;-71
2023/01/05 00:32:29;;;;;;;;;;;;;;;16.42;61.44;101284.31;2080747;28;20355;-71
2023/01/05 00:33:31;;;;;;;;;;;;;;;16.42;61.50;101276.13;2072916;28;19933;-70
2023/01/05 00:34:34;;;;;;;;;;;;;;;16.42;61.44;101281.56;2061970;28;19930;-70
2023/01/05 00:35:37;;;;;;;;;;;;;;;16.42;61.51;101287.03;2069995;28;20390;-72
2023/01/05 00:36:40;;;;;;;;;;;;;;;16.43;61.32;101276.91;2077360;28;19933;-71
2023/01/05 00:37:42;;;;;;;;;;;;;;;16.41;61.41;101288.16;2083905;28;19932;-71
2023/01/05 00:38:44;;;;;;;;;;;;;;;16.42;61.25;101287.03;2079554;28;19949;-71
2023/01/05 00:39:46;;;;;;;;;;;;;;;16.42;61.51;101278.84;2087034;28;19934;-70
2023/01/05 00:40:49;;;;;;;;;;;;;;;16.41;61.30;101282.72;2083645;28;19925;-71
2023/01/05 00:41:51;;;;;;;;;;;;;;;16.42;61.63;101275.34;2087794;28;20471;-70
2023/01/05 00:42:53;;;;;;;;;;;;;;;16.41;61.27;101285.44;2083626;28;19929;-71
2023/01/05 00:43:55;;;;;;;;;;;;;;;16.41;61.54;101280.00;2079341;28;19936;-70
2023/01/05 00:44:59;;;;;;;;;;;;;;;16.40;61.45;101283.88;2075742;28;19933;-70
2023/01/05 00:46:01;;;;;;;;;;;;;;;16.41;61.30;101279.22;2075569;28;20460;-71
2023/01/05 00:47:03;;;;;;;;;;;;;;;16.41;61.24;101284.69;2084069;28;20709;-70
2023/01/05 00:48:06;;;;;;;;;;;;;;;16.39;61.35;101279.56;2084216;28;19928;-72
2023/01/05 00:49:08;;;;;;;;;;;;;;;16.40;61.49;101288.53;2079864;28;19929;-70
2023/01/05 00:50:13;;;;;;;;;;;;;;;16.39;61.45;101279.56;2078281;28;19929;-71
2023/01/05 00:51:14;;;;;;;;;;;;;;;16.41;61.63;101281.94;2072917;28;19925;-71
2023/01/05 00:52:17;;;;;;;;;;;;;;;16.40;61.47;101283.09;2084339;28;19933;-70
2023/01/05 00:53:19;;;;;;;;;;;;;;;16.39;61.47;101290.47;2095954;28;20299;-71
2023/01/05 00:54:21;;;;;;;;;;;;;;;16.39;61.60;101286.97;2082963;28;19939;-70
2023/01/05 00:55:23;;;;;;;;;;;;;;;16.39;61.33;101293.19;2080513;28;19940;-71
2023/01/05 00:56:25;;;;;;;;;;;;;;;16.39;61.35;101282.28;2085307;28;19940;-71
2023/01/05 00:57:27;;;;;;;;;;;;;;;16.39;61.26;101295.91;2082726;28;19933;-70
2023/01/05 00:58:30;;;;;;;;;;;;;;;16.39;61.45;101298.63;2065728;28;19930;-71
2023/01/05 00:59:33;;;;;;;;;;;;;;;16.39;61.48;101293.19;2067255;28;19929;-70
2023/01/05 01:00:36;;;;;;;;;;;;;;;16.38;61.48;101302.53;2078339;28;19928;-70
2023/01/05 01:01:44;;;;;;;;;;;;;;;16.38;61.50;101297.09;2072399;28;19929;-70
2023/01/05 01:02:47;;;;;;;;;;;;;;;16.37;61.48;101306.41;2074655;28;19932;-70
2023/01/05 01:03:48;;;;;;;;;;;;;;;16.38;61.35;101297.09;2082133;28;19936;-71
2023/01/05 01:04:51;;;;;;;;;;;;;;;16.38;61.40;101294.34;2080401;28;19935;-71
2023/01/05 01:05:55;;;;;;;;;;;;;;;16.36;61.28;101299.38;2083016;28;20328;-71
2023/01/05 01:06:59;;;;;;;;;;;;;;;16.37;61.56;101303.69;2082013;28;19987;-71
2023/01/05 01:08:00;;;;;;;;;;;;;;;16.37;61.32;101306.41;2086917;28;19932;-72
2023/01/05 01:09:03;;;;;;;;;;;;;;;16.37;61.24;101303.69;2074481;28;19932;-71
2023/01/05 01:10:06;;;;;;;;;;;;;;;16.37;61.29;101311.88;2085746;28;19929;-72
2023/01/05 01:11:09;;;;;;;;;;;;;;;16.37;61.26;101309.16;2078875;28;20694;-72
2023/01/05 01:12:11;;;;;;;;;;;;;;;16.37;61.50;101306.41;2080230;28;20360;-72
2023/01/05 01:13:14;;;;;;;;;;;;;;;16.37;61.49;101302.91;2071411;28;19952;-71
2023/01/05 01:14:16;;;;;;;;;;;;;;;16.36;61.26;101299.38;2077278;28;19933;-71
2023/01/05 01:15:18;;;;;;;;;;;;;;;16.36;61.33;101304.81;2074627;28;19934;-71
2023/01/05 01:16:22;;;;;;;;;;;;;;;16.37;61.31;101306.41;2083957;28;19928;-71
2023/01/05 01:17:25;;;;;;;;;;;;;;;16.36;61.32;101296.66;2071974;28;19944;-69
2023/01/05 01:18:26;;;;;;;;;;;;;;;16.36;61.52;101309.50;2077227;28;19968;-70
2023/01/05 01:19:29;;;;;;;;;;;;;;;16.36;61.54;101315.72;2083650;28;20000;-70
2023/01/05 01:20:30;;;;;;;;;;;;;;;16.36;61.29;101313.00;2079134;28;19986;-71
2023/01/05 01:21:33;;;;;;;;;;;;;;;16.36;61.43;101315.72;2080751;28;19929;-72
2023/01/05 01:22:36;;;;;;;;;;;;;;;16.35;61.28;101319.63;2074475;28;20302;-71
2023/01/05 01:23:38;;;;;;;;;;;;;;;16.35;61.28;101327.78;2069605;28;20056;-70
2023/01/05 01:24:40;;;;;;;;;;;;;;;16.34;61.56;101320.78;2076723;28;20318;-70
2023/01/05 01:25:42;;;;;;;;;;;;;;;16.35;61.24;101313.38;2082626;28;19929;-71
2023/01/05 01:26:45;;;;;;;;;;;;;;;16.35;61.53;101318.81;2070980;28;19944;-71
2023/01/05 01:27:46;;;;;;;;;;;;;;;16.35;61.07;101316.09;2070914;28;19967;-70
2023/01/05 01:28:49;;;;;;;;;;;;;;;16.35;61.29;101329.72;2074955;28;19933;-70
2023/01/05 01:29:51;;;;;;;;;;;;;;;16.34;61.34;101320.00;2079690;28;19955;-70
2023/01/05 01:30:54;;;;;;;;;;;;;;;16.34;61.53;101326.22;2075860;28;19972;-70
2023/01/05 01:31:57;;;;;;;;;;;;;;;16.34;61.23;101328.97;2078135;28;19933;-70
2023/01/05 01:33:00;;;;;;;;;;;;;;;16.34;61.25;101331.69;2075579;28;19933;-71
2023/01/05 01:34:01;;;;;;;;;;;;;;;16.34;61.23;101323.50;2068335;28;19987;-71
2023/01/05 01:35:04;;;;;;;;;;;;;;;16.33;61.31;101335.53;2074467;28;19926;-69
2023/01/05 01:36:06;;;;;;;;;;;;;;;16.34;61.35;101334.41;2069805;28;20024;-70
2023/01/05 01:37:10;;;;;;;;;;;;;;;16.33;61.57;101338.28;2072507;28;20410;-71
2023/01/05 01:38:17;;;;;;;;;;;;;;;16.33;61.47;101338.28;2070149;28;20397;-70
2023/01/05 01:39:20;;;;;;;;;;;;;;;16.33;61.44;101342.94;2069634;28;20085;-71
2023/01/05 01:40:26;;;;;;;;;;;;;;;16.33;61.21;101343.72;2068660;28;19965;-71
2023/01/05 01:41:29;;;;;;;;;;;;;;;16.32;61.37;101342.16;2070308;28;20000;-71
2023/01/05 01:42:32;;;;;;;;;;;;;;;16.31;61.44;101346.03;2071674;28;19926;-71
2023/01/05 01:43:41;;;;;;;;;;;;;;;16.32;61.35;101347.59;2068891;28;20385;-72
2023/01/05 01:44:47;;;;;;;;;;;;;;;16.32;61.01;101358.50;2078320;28;19929;-71
2023/01/05 01:45:52;;;;;;;;;;;;;;;16.33;61.50;101364.75;2067381;28;19933;-71
2023/01/05 01:46:53;;;;;;;;;;;;;;;16.31;61.33;101373.28;2069325;28;19960;-72
2023/01/05 01:47:58;;;;;;;;;;;;;;;16.33;61.36;101368.25;2080606;28;19929;-71
2023/01/05 01:49:03;;;;;;;;;;;;;;;16.31;61.53;101365.13;2067850;28;19933;-72
2023/01/05 01:50:08;;;;;;;;;;;;;;;16.32;61.45;101374.06;2061018;28;20447;-69
2023/01/05 01:51:13;;;;;;;;;;;;;;;16.32;61.58;101361.22;2070951;28;19991;-71
2023/01/05 01:52:15;;;;;;;;;;;;;;;16.32;61.44;101369.41;2088073;28;19929;-70
2023/01/05 01:53:19;;;;;;;;;;;;;;;16.32;61.43;101369.41;2076311;28;19925;-71
2023/01/05 01:54:22;;;;;;;;;;;;;;;16.31;61.27;101378.75;2074300;28;19973;-71
2023/01/05 01:55:25;;;;;;;;;;;;;;;16.31;61.46;101375.22;2085649;28;19932;-71
2023/01/05 01:56:30;;;;;;;;;;;;;;;16.30;61.52;101377.16;2078840;28;19940;-71
2023/01/05 01:57:33;;;;;;;;;;;;;;;16.31;61.33;101383.41;2063440;28;19933;-71
2023/01/05 01:58:37;;;;;;;;;;;;;;;16.29;61.41;101388.41;2064727;28;20573;-70
2023/01/05 01:59:39;;;;;;;;;;;;;;;16.30;61.11;101374.44;2061981;28;19926;-70
2023/01/05 02:00:41;;;;;;;;;;;;;;;16.30;61.31;101379.09;2071121;28;19980;-71
2023/01/05 02:01:43;;;;;;;;;;;;;;;16.29;61.23;101383.75;2075784;28;20043;-69
2023/01/05 02:02:47;;;;;;;;;;;;;;;16.30;61.33;101376.34;2073231;28;19933;-72
2023/01/05 02:03:53;;;;;;;;;;;;;;;16.30;61.21;101392.72;2074099;28;19940;-70
2023/01/05 02:04:58;;;;;;;;;;;;;;;16.30;61.27;101385.34;2064650;28;19930;-70
2023/01/05 02:06:01;;;;;;;;;;;;;;;16.30;61.26;101389.97;2079366;28;19935;-72
2023/01/05 02:07:03;;;;;;;;;;;;;;;16.29;61.32;101378.31;2079515;28;19925;-71
2023/01/05 02:08:10;;;;;;;;;;;;;;;16.29;61.50;101375.59;2077675;28;19933;-71
2023/01/05 02:09:12;;;;;;;;;;;;;;;16.28;61.17;101393.06;2069998;28;19940;-70
2023/01/05 02:10:16;;;;;;;;;;;;;;;16.29;61.12;101386.50;2061335;28;20473;-71
2023/01/05 02:11:32;;;;;;;;;;;;;;;16.29;61.23;101391.94;2064640;28;20026;-71
2023/01/05 02:12:37;;;;;;;;;;;;;;;16.29;61.46;101386.50;2070166;28;19930;-71
2023/01/05 02:13:48;;;;;;;;;;;;;;;16.29;61.31;101391.94;2078403;28;19933;-70
2023/01/05 02:14:59;;;;;;;;;;;;;;;16.28;61.44;101393.06;2078706;28;19929;-72
2023/01/05 02:16:04;;;;;;;;;;;;;;;16.29;61.37;101391.94;2078045;28;19929;-71
2023/01/05 02:17:13;;;;;;;;;;;;;;;16.27;61.38;101388.78;2075869;28;20017;-71
2023/01/05 02:18:22;;;;;;;;;;;;;;;16.28;61.45;101395.81;2068670;28;20028;-71
2023/01/05 02:19:42;;;;;;;;;;;;;;;16.27;61.38;101394.22;2077099;28;19955;-70
2023/01/05 02:20:52;;;;;;;;;;;;;;;16.27;61.23;101396.97;2079911;28;19979;-70
2023/01/05 02:22:01;;;;;;;;;;;;;;;16.28;61.29;101395.81;2077367;28;19928;-70
2023/01/05 02:23:21;;;;;;;;;;;;;;;16.28;61.29;101393.06;2062637;28;19925;-71
2023/01/05 02:24:48;;;;;;;;;;;;;;;16.27;61.23;101394.22;2073870;28;20385;-71
2023/01/05 02:25:59;;;;;;;;;;;;;;;16.27;61.28;101399.69;2071662;28;19929;-70
2023/01/05 02:27:19;;;;;;;;;;;;;;;16.27;61.18;101394.22;2062905;28;20429;-71
2023/01/05 02:28:31;;;;;;;;;;;;;;;16.27;61.27;101394.22;2073494;28;19929;-71
2023/01/05 02:29:54;;;;;;;;;;;;;;;16.26;61.29;101395.41;2078970;28;19926;-71
2023/01/05 02:31:06;;;;;;;;;;;;;;;16.27;61.23;101393.44;2046328;28;19930;-71
2023/01/05 02:32:14;;;;;;;;;;;;;;;16.26;61.42;101398.13;2070459;28;19966;-71
2023/01/05 02:33:24;;;;;;;;;;;;;;;16.26;61.23;101402.78;2070783;28;20358;-71
2023/01/05 02:34:30;;;;;;;;;;;;;;;16.26;61.46;101389.16;2077887;28;19935;-70
2023/01/05 02:35:35;;;;;;;;;;;;;;;16.26;61.51;101386.44;2076949;28;19937;-70
2023/01/05 02:36:41;;;;;;;;;;;;;;;16.25;61.23;101387.59;2084616;28;19933;-71
2023/01/05 02:37:46;;;;;;;;;;;;;;;16.26;61.22;101389.94;2083710;28;20304;-71
2023/01/05 02:38:52;;;;;;;;;;;;;;;16.26;61.50;101397.31;2069845;28;19936;-71
2023/01/05 02:39:58;;;;;;;;;;;;;;;16.25;61.36;101391.09;2072018;28;19933;-70
2023/01/05 02:41:12;;;;;;;;;;;;;;;16.26;61.47;101389.16;2059295;28;19934;-71
2023/01/05 02:42:17;;;;;;;;;;;;;;;16.24;61.31;101392.25;2073659;28;19971;-71
2023/01/05 02:43:19;;;;;;;;;;;;;;;16.24;61.23;101389.53;2079449;28;19936;-71
2023/01/05 02:44:22;;;;;;;;;;;;;;;16.24;61.42;101400.41;2073526;28;19973;-72
2023/01/05 02:45:27;;;;;;;;;;;;;;;16.25;61.21;101399.25;2066613;28;19925;-70
2023/01/05 02:46:35;;;;;;;;;;;;;;;16.24;61.24;101394.97;2069546;28;19934;-71
2023/01/05 02:47:40;;;;;;;;;;;;;;;16.24;61.20;101389.53;2084075;28;20952;-72
2023/01/05 02:48:45;;;;;;;;;;;;;;;16.24;61.35;101389.53;2075594;28;19981;-71
2023/01/05 02:49:48;;;;;;;;;;;;;;;16.24;61.27;101403.16;2061094;28;19965;-70
2023/01/05 02:50:56;;;;;;;;;;;;;;;16.24;61.30;101388.72;2072563;28;19933;-72
2023/01/05 02:52:00;;;;;;;;;;;;;;;16.24;61.46;101394.97;2077032;28;19928;-71
2023/01/05 02:53:06;;;;;;;;;;;;;;;16.23;61.49;101401.59;2083674;28;19929;-71
2023/01/05 02:54:09;;;;;;;;;;;;;;;16.23;61.33;101398.84;2085906;28;20265;-71
2023/01/05 02:55:15;;;;;;;;;;;;;;;16.23;61.50;101398.06;2079670;28;19926;-71
2023/01/05 02:56:19;;;;;;;;;;;;;;;16.23;61.38;101396.13;2079222;28;20003;-71
2023/01/05 02:57:45;;;;;;;;;;;;;;;16.22;61.36;101402.72;2072028;28;20261;-71
2023/01/05 02:58:53;;;;;;;;;;;;;;;16.22;61.44;101405.44;2075097;28;20004;-71
2023/01/05 02:59:55;;;;;;;;;;;;;;;16.22;61.22;101401.94;2070783;28;19933;-71
2023/01/05 03:01:00;;;;;;;;;;;;;;;16.23;61.81;101404.31;2071671;28;19932;-71
2023/01/05 03:02:08;;;;;;;;;;;;;;;16.22;61.33;101408.16;2077534;28;19995;-70
2023/01/05 03:03:12;;;;;;;;;;;;;;;16.21;61.29;101417.50;2069102;28;20347;-71
2023/01/05 03:04:19;;;;;;;;;;;;;;;16.23;61.27;101408.97;2067436;28;19934;-72
2023/01/05 03:05:25;;;;;;;;;;;;;;;16.21;61.29;101417.50;2076796;28;19936;-71
2023/01/05 03:06:30;;;;;;;;;;;;;;;16.23;61.33;101419.84;2085868;28;20020;-71
2023/01/05 03:07:34;;;;;;;;;;;;;;;16.22;61.29;101418.28;2069970;28;19976;-71
2023/01/05 03:08:41;;;;;;;;;;;;;;;16.22;61.13;101423.75;2076741;28;20414;-70
2023/01/05 03:09:44;;;;;;;;;;;;;;;16.22;61.35;101401.94;2091509;28;19924;-71
2023/01/05 03:13:46;;;;;;;;;;;;;;;16.20;61.54;101421.38;2082945;28;19997;-70
2023/01/05 03:14:55;;;;;;;;;;;;;;;16.21;61.25;101422.94;2077604;28;19929;-71
2023/01/05 03:16:00;;;;;;;;;;;;;;;16.20;61.42;101421.38;2069807;28;20435;-71
2023/01/05 03:17:08;;;;;;;;;;;;;;;16.21;61.40;101413.97;2065660;28;19936;-71
2023/01/05 03:18:16;;;;;;;;;;;;;;;16.20;61.18;101420.59;2063594;28;19933;-70
2023/01/05 03:19:35;;;;;;;;;;;;;;;16.21;61.29;101424.88;2064999;28;20321;-71
2023/01/05 03:20:40;;;;;;;;;;;;;;;16.21;61.33;101433.03;2069888;28;19936;-71
2023/01/05 03:35:40;;;;;;;;;;;;;;;16.18;61.09;101426.41;2074409;28;20363;-70
2023/01/05 03:36:46;;;;;;;;;;;;;;;16.18;61.32;101422.88;2075950;28;20015;-71
2023/01/05 03:37:52;;;;;;;;;;;;;;;16.19;61.23;101427.97;2076252;28;19932;-70
2023/01/05 03:38:55;;;;;;;;;;;;;;;16.17;61.17;101430.25;2069354;28;19956;-70
2023/01/05 03:39:59;;;;;;;;;;;;;;;16.13;61.41;101417.72;2073726;28;19964;-72
2023/01/05 03:41:07;;;;;;;;;;;;;;;16.18;61.19;101431.84;2070692;28;19929;-70
2023/01/05 03:42:12;;;;;;;;;;;;;;;16.17;61.54;101430.25;2071083;28;19937;-71
2023/01/05 03:43:14;;;;;;;;;;;;;;;16.18;61.25;101434.56;2076737;28;19937;-71
2023/01/05 03:44:18;;;;;;;;;;;;;;;16.17;61.45;101438.44;2068609;28;21131;-70
2023/01/05 03:45:21;;;;;;;;;;;;;;;16.17;61.22;101435.72;2063136;28;19937;-71
2023/01/05 03:46:24;;;;;;;;;;;;;;;16.17;61.16;101432.97;2061308;28;19933;-70
2023/01/05 03:47:26;;;;;;;;;;;;;;;16.17;61.22;101432.97;2060261;28;19937;-70
2023/01/05 03:48:30;;;;;;;;;;;;;;;16.17;61.36;101443.88;2064010;28;20008;-71
2023/01/05 03:49:32;;;;;;;;;;;;;;;16.18;61.25;101444.69;2071899;28;20024;-72
2023/01/05 03:50:35;;;;;;;;;;;;;;;16.16;61.44;101445.03;2069946;28;19933;-71
2023/01/05 03:51:38;;;;;;;;;;;;;;;16.17;61.38;101445.84;2061955;28;19930;-70
2023/01/05 03:52:44;;;;;;;;;;;;;;;16.17;61.22;101448.56;2069252;28;19930;-71
2023/01/05 03:53:45;;;;;;;;;;;;;;;16.17;61.41;101454.00;2084050;28;19929;-71
2023/01/05 03:54:48;;;;;;;;;;;;;;;16.16;61.22;101447.75;2083935;28;20474;-72
2023/01/05 03:55:49;;;;;;;;;;;;;;;16.15;61.30;101446.19;2077344;28;20000;-71
2023/01/05 03:56:52;;;;;;;;;;;;;;;16.15;61.26;101446.19;2076175;28;20445;-71
2023/01/05 03:57:54;;;;;;;;;;;;;;;16.16;61.21;101464.09;2075972;28;19933;-72
2023/01/05 03:58:57;;;;;;;;;;;;;;;16.16;61.40;101449.69;2075875;28;19991;-71
2023/01/05 04:00:00;;;;;;;;;;;;;;;16.16;61.26;101458.66;2068466;28;19929;-70
2023/01/05 04:01:03;;;;;;;;;;;;;;;16.16;61.03;101453.22;2061122;28;20025;-71
2023/01/05 04:02:05;;;;;;;;;;;;;;;16.15;61.47;101453.56;2061586;28;20353;-71
2023/01/05 04:03:10;;;;;;;;;;;;;;;16.15;61.53;101457.09;2061013;28;20041;-71
2023/01/05 04:04:14;;;;;;;;;;;;;;;16.15;61.27;101451.66;2065106;28;19936;-72
2023/01/05 04:05:16;;;;;;;;;;;;;;;16.15;61.20;101451.66;2072595;28;19933;-71
2023/01/05 04:06:18;;;;;;;;;;;;;;;16.15;61.16;101451.66;2070144;28;19929;-70
2023/01/05 04:07:21;;;;;;;;;;;;;;;16.16;61.37;101464.09;2070099;28;19934;-72
2023/01/05 04:08:23;;;;;;;;;;;;;;;16.14;61.39;101460.94;2076010;28;20356;-70
2023/01/05 04:09:25;;;;;;;;;;;;;;;16.15;61.38;101457.09;2080973;28;20005;-70
2023/01/05 04:10:27;;;;;;;;;;;;;;;16.15;61.29;101456.31;2077728;28;19925;-70
2023/01/05 04:11:30;;;;;;;;;;;;;;;16.15;61.39;101450.84;2071475;28;19930;-71
2023/01/05 04:12:36;;;;;;;;;;;;;;;16.14;61.33;101457.47;2064208;28;19930;-72
2023/01/05 04:13:39;;;;;;;;;;;;;;;16.14;61.22;101455.50;2069984;28;19955;-71
2023/01/05 04:14:41;;;;;;;;;;;;;;;16.14;61.21;101454.75;2072145;28;20015;-71
2023/01/05 04:15:43;;;;;;;;;;;;;;;16.14;61.33;101460.19;2069649;28;19944;-71
2023/01/05 04:16:45;;;;;;;;;;;;;;;16.14;61.16;101455.50;2069120;28;20436;-71
2023/01/05 04:17:53;;;;;;;;;;;;;;;16.13;61.49;101464.84;2065556;28;19945;-71
2023/01/05 04:18:55;;;;;;;;;;;;;;;16.13;61.26;101464.84;2072199;28;19933;-72
2023/01/05 04:19:59;;;;;;;;;;;;;;;16.14;61.15;101454.75;2078455;28;19925;-71
2023/01/05 04:21:01;;;;;;;;;;;;;;;16.13;61.42;101459.38;2070209;28;19933;-71
2023/01/05 04:22:04;;;;;;;;;;;;;;;16.12;61.19;101463.28;2071279;28;20385;-71
2023/01/05 04:23:07;;;;;;;;;;;;;;;16.13;61.17;101481.19;2079130;28;19933;-71
2023/01/05 04:24:10;;;;;;;;;;;;;;;16.12;61.36;101463.28;2069431;28;19983;-72
2023/01/05 04:25:14;;;;;;;;;;;;;;;16.12;61.26;101471.44;2063840;28;19934;-72
2023/01/05 04:26:18;;;;;;;;;;;;;;;16.12;61.37;101468.72;2070665;28;19929;-70
2023/01/05 04:27:23;;;;;;;;;;;;;;;16.12;61.50;101474.16;2079087;28;19956;-70
2023/01/05 04:28:25;;;;;;;;;;;;;;;16.12;61.19;101478.81;2071395;28;20405;-70
2023/01/05 04:29:29;;;;;;;;;;;;;;;16.12;61.33;101470.66;2060328;28;19930;-72
2023/01/05 04:30:34;;;;;;;;;;;;;;;16.12;61.38;101473.38;2072570;28;21356;-70
2023/01/05 04:31:37;;;;;;;;;;;;;;;16.12;61.24;101468.72;2070382;28;19929;-71
2023/01/05 04:32:41;;;;;;;;;;;;;;;16.11;61.17;101478.03;2063287;28;20523;-72
2023/01/05 04:33:47;;;;;;;;;;;;;;;16.12;61.31;101474.16;2070227;28;19992;-71
2023/01/05 04:34:53;;;;;;;;;;;;;;;16.12;61.36;101474.16;2079480;28;19952;-70
2023/01/05 04:35:56;;;;;;;;;;;;;;;16.11;61.21;101483.47;2072096;28;19940;-72
2023/01/05 04:37:02;;;;;;;;;;;;;;;16.12;61.43;101481.56;2070355;28;19944;-73
2023/01/05 04:38:06;;;;;;;;;;;;;;;16.11;61.21;101475.31;2077769;28;20012;-73
2023/01/05 04:39:08;;;;;;;;;;;;;;;16.11;61.35;101478.03;2070371;28;19926;-71
2023/01/05 04:40:12;;;;;;;;;;;;;;;16.11;61.24;101488.94;2073002;28;19941;-71
2023/01/05 04:41:26;;;;;;;;;;;;;;;16.11;61.35;101479.97;2065973;28;20044;-72
2023/01/05 04:42:30;;;;;;;;;;;;;;;16.11;61.23;101488.16;2064076;28;19937;-72
2023/01/05 04:43:32;;;;;;;;;;;;;;;16.11;61.29;101485.44;2069585;28;19929;-72
2023/01/05 04:44:35;;;;;;;;;;;;;;;16.10;61.40;101484.63;2070766;28;19934;-72
2023/01/05 04:45:40;;;;;;;;;;;;;;;16.10;61.47;101497.47;2070992;28;19929;-71
2023/01/05 04:46:42;;;;;;;;;;;;;;;16.10;61.37;101494.72;2076462;28;19930;-71
2023/01/05 04:47:45;;;;;;;;;;;;;;;16.10;61.43;101495.53;2067911;28;19929;-72
2023/01/05 04:48:51;;;;;;;;;;;;;;;16.09;61.22;101488.50;2062714;28;19930;-71
2023/01/05 04:49:55;;;;;;;;;;;;;;;16.09;61.26;101499.38;2064266;28;19965;-73
2023/01/05 04:50:58;;;;;;;;;;;;;;;16.10;61.25;101497.47;2064687;28;19981;-71
2023/01/05 04:52:05;;;;;;;;;;;;;;;16.09;61.19;101496.66;2072718;28;19937;-72
2023/01/05 04:53:08;;;;;;;;;;;;;;;16.10;61.15;101502.91;2080016;28;19978;-71
2023/01/05 04:54:14;;;;;;;;;;;;;;;16.10;61.43;101502.91;2077380;28;19983;-72
2023/01/05 04:55:16;;;;;;;;;;;;;;;16.09;61.38;101493.94;2076204;28;19941;-71
2023/01/05 04:56:19;;;;;;;;;;;;;;;16.09;61.31;101496.66;2069517;28;19925;-72
2023/01/05 04:57:22;;;;;;;;;;;;;;;16.08;61.35;101506.00;2063296;28;19980;-71
2023/01/05 04:58:26;;;;;;;;;;;;;;;16.09;61.17;101502.09;2060528;28;19937;-72
2023/01/05 04:59:31;;;;;;;;;;;;;;;16.09;61.15;101504.84;2066861;28;19937;-71
2023/01/05 05:00:36;;;;;;;;;;;;;;;16.09;61.35;101517.69;2061398;28;19941;-72
2023/01/05 05:01:40;;;;;;;;;;;;;;;16.09;61.45;101515.72;2069301;28;19929;-71
2023/01/05 05:02:46;;;;;;;;;;;;;;;16.08;61.16;101502.47;2070520;28;19938;-72
2023/01/05 05:03:48;;;;;;;;;;;;;;;16.08;61.42;101508.72;2066479;28;19993;-71
2023/01/05 05:04:54;;;;;;;;;;;;;;;16.08;61.19;101503.28;2069625;28;19996;-72
2023/01/05 05:05:56;;;;;;;;;;;;;;;16.08;61.23;101508.72;2069083;28;20371;-72
2023/01/05 05:07:02;;;;;;;;;;;;;;;16.08;61.51;101513.38;2073229;28;19930;-71
2023/01/05 05:08:05;;;;;;;;;;;;;;;16.08;61.26;101516.88;2073229;28;20385;-71
2023/01/05 05:09:09;;;;;;;;;;;;;;;16.08;61.47;101516.88;2066456;28;20059;-71
2023/01/05 05:10:16;;;;;;;;;;;;;;;16.08;61.46;101510.66;2063486;28;19926;-70
2023/01/05 05:11:19;;;;;;;;;;;;;;;16.07;61.22;101520.78;2062659;28;19925;-71
2023/01/05 05:12:22;;;;;;;;;;;;;;;16.07;61.13;101517.25;2069292;28;19987;-71
2023/01/05 05:13:26;;;;;;;;;;;;;;;16.07;61.13;101515.31;2072171;28;19929;-72
2023/01/05 05:14:28;;;;;;;;;;;;;;;16.07;61.26;101522.69;2072355;28;19933;-71
2023/01/05 05:15:33;;;;;;;;;;;;;;;16.06;61.22;101521.91;2070213;28;20010;-71
2023/01/05 05:16:36;;;;;;;;;;;;;;;16.07;61.45;101520.78;2063532;28;19929;-71
2023/01/05 05:17:40;;;;;;;;;;;;;;;16.07;61.15;101522.69;2073226;28;20017;-71
2023/01/05 05:18:47;;;;;;;;;;;;;;;16.06;61.28;101523.84;2076346;28;19929;-71
2023/01/05 05:19:56;;;;;;;;;;;;;;;16.05;61.24;101523.06;2070254;28;20040;-71
2023/01/05 05:20:59;;;;;;;;;;;;;;;16.05;61.45;101523.06;2069201;28;20304;-71
2023/01/05 05:22:06;;;;;;;;;;;;;;;16.06;61.25;101530.06;2079818;28;20441;-71
2023/01/05 05:23:09;;;;;;;;;;;;;;;16.06;61.46;101535.53;2078009;28;19972;-71
2023/01/05 05:24:11;;;;;;;;;;;;;;;16.05;61.35;101531.22;2077701;28;19984;-71
2023/01/05 05:25:17;;;;;;;;;;;;;;;16.05;61.27;101528.50;2069714;28;20333;-71
2023/01/05 05:26:21;;;;;;;;;;;;;;;16.05;61.21;101539.41;2070568;28;20877;-70
2023/01/05 05:27:25;;;;;;;;;;;;;;;16.06;61.29;101542.94;2067283;28;20028;-71
2023/01/05 05:28:27;;;;;;;;;;;;;;;16.05;61.42;101539.41;2071248;28;19983;-71
2023/01/05 05:29:29;;;;;;;;;;;;;;;16.05;61.12;101549.50;2070286;28;19988;-70
2023/01/05 05:30:31;;;;;;;;;;;;;;;16.05;61.22;101553.03;2078054;28;19929;-71
2023/01/05 05:31:34;;;;;;;;;;;;;;;16.04;61.29;101554.19;2077792;28;20003;-70
2023/01/05 05:32:36;;;;;;;;;;;;;;;16.05;61.27;101550.31;2077670;28;19990;-71
2023/01/05 05:33:45;;;;;;;;;;;;;;;16.04;61.42;101559.63;2085488;28;20513;-72
2023/01/05 05:34:46;;;;;;;;;;;;;;;16.06;61.26;101559.28;2086892;28;19928;-72
2023/01/05 05:35:49;;;;;;;;;;;;;;;16.03;61.38;101555.31;2080260;28;19925;-70
2023/01/05 05:36:51;;;;;;;;;;;;;;;16.05;61.42;101560.41;2080066;28;20309;-71
2023/01/05 05:37:55;;;;;;;;;;;;;;;16.04;61.40;101551.47;2070030;28;20312;-70
2023/01/05 05:38:57;;;;;;;;;;;;;;;16.04;61.24;101556.91;2069479;28;19972;-71
2023/01/05 05:40:00;;;;;;;;;;;;;;;16.04;61.30;101558.84;2080405;28;19925;-70
2023/01/05 05:41:01;;;;;;;;;;;;;;;16.03;61.22;101547.16;2079054;28;20392;-72
2023/01/05 05:42:04;;;;;;;;;;;;;;;16.03;61.24;101558.03;2077427;28;19937;-72
2023/01/05 05:43:06;;;;;;;;;;;;;;;16.04;61.22;101570.53;2076570;28;20392;-71
2023/01/05 05:44:08;;;;;;;;;;;;;;;16.03;61.47;101563.50;2076531;28;19990;-71
2023/01/05 05:45:10;;;;;;;;;;;;;;;16.03;61.29;101563.50;2079273;28;19928;-70
2023/01/05 05:46:12;;;;;;;;;;;;;;;16.03;61.43;101568.94;2077320;28;19925;-71
2023/01/05 05:47:14;;;;;;;;;;;;;;;16.03;61.40;101563.50;2075412;28;20510;-71
2023/01/05 05:48:17;;;;;;;;;;;;;;;16.03;61.25;101571.66;2077861;28;21198;-72
2023/01/05 05:49:18;;;;;;;;;;;;;;;16.03;61.38;101574.38;2079514;28;19977;-72
2023/01/05 05:50:21;;;;;;;;;;;;;;;16.03;61.22;101577.09;2079071;28;19929;-70
2023/01/05 05:51:23;;;;;;;;;;;;;;;16.02;61.34;101572.81;2079984;28;19940;-70
2023/01/05 05:52:25;;;;;;;;;;;;;;;16.03;61.32;101577.09;2077879;28;19984;-70
2023/01/05 05:53:28;;;;;;;;;;;;;;;16.03;61.19;101579.06;2072168;28;19971;-70
2023/01/05 05:54:34;;;;;;;;;;;;;;;16.03;61.25;101579.06;2072570;28;20131;-71
2023/01/05 05:55:35;;;;;;;;;;;;;;;16.02;61.38;101569.28;2077162;28;19933;-71
2023/01/05 05:56:38;;;;;;;;;;;;;;;16.02;61.35;101582.91;2075057;28;20039;-70
2023/01/05 05:57:40;;;;;;;;;;;;;;;16.02;61.40;101575.53;2067826;28;19941;-70
2023/01/05 05:58:42;;;;;;;;;;;;;;;16.02;61.24;101586.44;2070550;28;19929;-70